Time;durP1;ratioP1;P1;durP2;ratioP2;P2;SDS_P1;SDS_P2;PMS_P1;PMS_P2;Temp;Humidity;BMP_temperature;BMP_pressure;BME280_temperature;BME280_humidity;BME280_pressure;Samples;Min_cycle;Max_cycle;Signal;HPM_P1;HPM_P2
2021/05/26 00:00:58;;;;;;;6.40;2.97;;;19.20;30.00;;;;;;4976065;28;20583;-74
2021/05/26 00:03:23;;;;;;;3.10;2.90;;;19.10;30.00;;;;;;4976491;28;20179;-74
2021/05/26 00:05:49;;;;;;;3.07;2.77;;;19.10;30.00;;;;;;4976268;28;20417;-74
2021/05/26 00:08:34;;;;;;;3.23;3.03;;;19.10;30.00;;;;;;4976216;28;20179;-74
2021/05/26 00:11:03;;;;;;;3.07;2.77;;;19.10;30.00;;;;;;4976351;28;20492;-74
2021/05/26 00:13:29;;;;;;;2.80;2.70;;;19.10;30.00;;;;;;4976202;28;20798;-74
2021/05/26 00:15:54;;;;;;;3.43;3.13;;;19.10;30.00;;;;;;4975868;28;20426;-74
2021/05/26 00:18:20;;;;;;;3.83;3.53;;;19.10;30.00;;;;;;4976235;28;20183;-74
2021/05/26 00:20:47;;;;;;;2.70;2.60;;;19.20;30.20;;;;;;4975986;28;20241;-74
2021/05/26 00:23:14;;;;;;;3.90;3.60;;;19.10;30.00;;;;;;4975850;28;20409;-74
2021/05/26 00:25:39;;;;;;;3.67;3.40;;;19.10;30.00;;;;;;4975950;28;20410;-74
2021/05/26 00:28:05;;;;;;;3.10;2.90;;;19.10;30.10;;;;;;4976104;28;20398;-76
2021/05/26 00:30:32;;;;;;;3.20;3.00;;;19.10;30.10;;;;;;4974890;28;20193;-75
2021/05/26 00:32:58;;;;;;;2.97;2.77;;;19.10;30.20;;;;;;4975839;28;20179;-75
2021/05/26 00:35:24;;;;;;;3.07;2.87;;;19.10;30.10;;;;;;4975525;28;20429;-74
2021/05/26 00:37:50;;;;;;;2.90;2.70;;;19.10;30.20;;;;;;4975933;28;20495;-74
2021/05/26 00:40:17;;;;;;;3.33;3.13;;;19.10;30.20;;;;;;4974557;28;20983;-75
2021/05/26 00:42:42;;;;;;;2.93;2.83;;;19.10;30.10;;;;;;4975404;28;20214;-75
2021/05/26 00:45:09;;;;;;;3.27;3.07;;;19.10;30.10;;;;;;4986140;28;20439;-75
2021/05/26 00:47:43;;;;;;;3.17;2.90;;;19.10;30.10;;;;;;4978098;28;20225;-74
2021/05/26 00:50:18;;;;;;;3.00;2.80;;;19.10;30.10;;;;;;4975709;28;20504;-75
2021/05/26 00:52:44;;;;;;;3.33;3.03;;;19.10;30.00;;;;;;4975164;28;20433;-74
2021/05/26 00:55:16;;;;;;;3.00;2.80;;;19.10;30.10;;;;;;4975132;28;20441;-75
2021/05/26 00:57:42;;;;;;;3.10;2.90;;;19.10;30.10;;;;;;4975460;28;20433;-74
2021/05/26 01:00:11;;;;;;;3.13;2.93;;;19.10;30.20;;;;;;4975030;28;20414;-74
2021/05/26 01:02:37;;;;;;;2.67;2.47;;;19.10;30.20;;;;;;4975242;28;20557;-74
2021/05/26 01:05:04;;;;;;;3.20;3.00;;;19.10;30.20;;;;;;4975099;28;20414;-74
2021/05/26 01:07:30;;;;;;;2.93;2.73;;;19.10;30.20;;;;;;4974667;28;20469;-74
2021/05/26 01:10:00;;;;;;;3.10;2.90;;;19.00;30.10;;;;;;4975233;28;20418;-75
2021/05/26 01:12:26;;;;;;;2.67;2.57;;;19.10;30.20;;;;;;4975283;28;20194;-75
2021/05/26 01:14:52;;;;;;;3.00;2.80;;;19.10;30.20;;;;;;4974968;28;20791;-75
2021/05/26 01:17:17;;;;;;;2.43;2.23;;;19.10;30.30;;;;;;4975208;28;20171;-75
2021/05/26 01:19:43;;;;;;;2.63;2.50;;;19.10;30.20;;;;;;4975104;28;20546;-75
2021/05/26 01:22:09;;;;;;;3.00;2.80;;;19.00;30.20;;;;;;4974795;28;20462;-75
2021/05/26 01:24:35;;;;;;;4.80;3.20;;;19.10;30.30;;;;;;4976727;28;20217;-74
2021/05/26 01:27:02;;;;;;;2.80;2.60;;;19.00;30.20;;;;;;4977543;28;20171;-74
2021/05/26 01:29:28;;;;;;;2.80;2.60;;;19.00;30.20;;;;;;4976193;28;20421;-75
2021/05/26 01:31:54;;;;;;;3.40;2.37;;;19.00;30.20;;;;;;4974643;28;20433;-74
2021/05/26 01:34:20;;;;;;;2.77;2.60;;;19.00;30.20;;;;;;4975023;28;20174;-75
2021/05/26 01:36:46;;;;;;;3.03;2.70;;;19.00;30.20;;;;;;4974662;28;20202;-75
2021/05/26 01:39:13;;;;;;;2.70;2.60;;;19.00;30.20;;;;;;4974555;28;20422;-75
2021/05/26 01:41:38;;;;;;;2.90;2.70;;;19.00;30.20;;;;;;4974702;28;20992;-74
2021/05/26 01:44:04;;;;;;;2.60;2.50;;;19.00;30.20;;;;;;4974735;28;20421;-74
2021/05/26 01:46:30;;;;;;;3.00;2.80;;;19.00;30.20;;;;;;4974164;28;20171;-75
2021/05/26 01:48:56;;;;;;;2.63;2.43;;;19.00;30.20;;;;;;4974652;28;20425;-74
2021/05/26 01:51:21;;;;;;;4.80;2.90;;;19.00;30.20;;;;;;4974461;28;20686;-74
2021/05/26 01:53:50;;;;;;;2.60;2.50;;;19.00;30.20;;;;;;4973928;28;20186;-74
2021/05/26 01:56:19;;;;;;;2.90;2.70;;;19.00;30.20;;;;;;4974594;28;20213;-74
2021/05/26 01:58:49;;;;;;;3.23;3.07;;;19.00;30.20;;;;;;4974424;28;20417;-74
2021/05/26 02:01:16;;;;;;;2.80;2.60;;;19.00;30.20;;;;;;4973972;28;20462;-74
2021/05/26 02:03:43;;;;;;;2.63;2.33;;;19.00;30.30;;;;;;4974160;28;20956;-74
2021/05/26 02:06:09;;;;;;;2.90;2.70;;;19.00;30.30;;;;;;4949042;28;20418;-74
2021/05/26 02:08:35;;;;;;;2.30;2.20;;;19.00;30.30;;;;;;4973875;28;20468;-74
2021/05/26 02:13:44;;;;;;;2.80;2.70;;;19.00;30.30;;;;;;4974184;28;20178;-74
2021/05/26 02:16:10;;;;;;;2.57;2.47;;;19.00;30.30;;;;;;4973437;28;20786;-75
2021/05/26 02:18:35;;;;;;;2.33;2.23;;;18.90;30.30;;;;;;4973364;28;20653;-75
2021/05/26 02:21:01;;;;;;;2.40;2.30;;;19.00;30.40;;;;;;4973838;28;20191;-75
2021/05/26 02:23:26;;;;;;;2.90;2.77;;;19.00;30.40;;;;;;4973628;28;20181;-75
2021/05/26 02:25:52;;;;;;;3.20;3.00;;;19.00;30.30;;;;;;4973877;28;20171;-75
2021/05/26 02:28:17;;;;;;;5.10;2.47;;;19.00;30.30;;;;;;4973843;28;20254;-74
2021/05/26 02:30:43;;;;;;;2.77;2.67;;;19.00;30.40;;;;;;4973525;28;20171;-74
2021/05/26 02:33:08;;;;;;;2.70;2.60;;;19.00;30.40;;;;;;4973837;28;20680;-74
2021/05/26 02:35:34;;;;;;;2.87;2.70;;;18.90;30.30;;;;;;4973629;28;20257;-74
2021/05/26 02:38:00;;;;;;;3.03;2.83;;;18.90;30.30;;;;;;4973650;28;20171;-74
2021/05/26 02:40:25;;;;;;;2.97;2.87;;;18.90;30.30;;;;;;4956382;28;20226;-74
2021/05/26 02:42:51;;;;;;;2.80;2.70;;;18.90;30.40;;;;;;4973665;28;20229;-75
2021/05/26 02:45:17;;;;;;;2.47;2.37;;;18.90;30.30;;;;;;4972907;28;20179;-75
2021/05/26 02:47:42;;;;;;;2.80;2.70;;;18.90;30.30;;;;;;4973722;28;20178;-74
2021/05/26 02:50:08;;;;;;;2.60;2.50;;;18.90;30.40;;;;;;4973223;28;20413;-75
2021/05/26 02:52:34;;;;;;;3.40;3.00;;;18.90;30.30;;;;;;4973211;28;20345;-75
2021/05/26 02:55:00;;;;;;;2.60;2.50;;;18.90;30.40;;;;;;4973153;28;20512;-75
2021/05/26 02:57:25;;;;;;;2.87;2.67;;;18.90;30.40;;;;;;4973390;28;20186;-75
2021/05/26 02:59:51;;;;;;;2.70;2.60;;;18.90;30.30;;;;;;4973124;28;20421;-74
2021/05/26 03:02:17;;;;;;;2.63;2.40;;;18.90;30.40;;;;;;4955923;28;20636;-75
2021/05/26 03:04:42;;;;;;;2.27;2.17;;;18.90;30.40;;;;;;4973269;28;20257;-75
2021/05/26 03:07:08;;;;;;;2.77;2.67;;;18.90;30.40;;;;;;4972973;28;20177;-75
2021/05/26 03:09:33;;;;;;;3.43;2.70;;;18.90;30.50;;;;;;4973464;28;20174;-75
2021/05/26 03:11:59;;;;;;;2.50;2.40;;;18.90;30.50;;;;;;4973139;28;20286;-74
2021/05/26 03:14:24;;;;;;;2.70;2.50;;;18.90;30.50;;;;;;4955682;28;20186;-75
2021/05/26 03:16:50;;;;;;;2.90;2.80;;;18.90;30.50;;;;;;4973011;28;20265;-75
2021/05/26 03:19:15;;;;;;;2.60;2.43;;;18.90;30.50;;;;;;4973125;28;20182;-75
2021/05/26 03:21:41;;;;;;;2.70;2.60;;;18.90;30.50;;;;;;4972737;28;20257;-75
2021/05/26 03:24:08;;;;;;;2.60;2.50;;;18.90;30.60;;;;;;4973115;28;20174;-74
2021/05/26 03:26:33;;;;;;;2.30;2.20;;;18.90;30.60;;;;;;4972932;28;20175;-75
2021/05/26 03:28:59;;;;;;;2.57;2.47;;;18.90;30.60;;;;;;4973280;28;20909;-75
2021/05/26 03:31:24;;;;;;;2.70;2.60;;;18.90;30.70;;;;;;4976920;28;20195;-75
2021/05/26 03:33:50;;;;;;;2.60;2.50;;;18.90;30.60;;;;;;4977403;28;20669;-75
2021/05/26 03:36:16;;;;;;;2.90;2.80;;;18.90;30.60;;;;;;4976554;28;20237;-74
2021/05/26 03:38:41;;;;;;;2.70;2.60;;;18.90;30.70;;;;;;4977224;28;20197;-75
2021/05/26 03:41:07;;;;;;;2.60;2.50;;;18.90;30.70;;;;;;4976626;28;20305;-74
2021/05/26 03:43:32;;;;;;;2.77;2.60;;;18.90;30.70;;;;;;4976782;28;20175;-74
2021/05/26 03:45:58;;;;;;;2.70;2.60;;;18.90;30.70;;;;;;4976683;28;20182;-74
2021/05/26 03:48:24;;;;;;;2.83;2.73;;;18.90;31.40;;;;;;4977024;28;20210;-74
2021/05/26 03:50:50;;;;;;;2.60;2.50;;;18.90;30.70;;;;;;4976039;28;20476;-74
2021/05/26 03:53:16;;;;;;;3.20;3.00;;;18.90;30.80;;;;;;4976490;28;20653;-75
2021/05/26 03:55:41;;;;;;;2.70;2.60;;;18.90;31.10;;;;;;4976492;28;20202;-74
2021/05/26 03:58:07;;;;;;;3.73;2.70;;;18.90;30.70;;;;;;4985451;28;20185;-74
2021/05/26 04:00:32;;;;;;;2.60;2.50;;;18.90;30.80;;;;;;4962033;28;20179;-74
2021/05/26 04:02:58;;;;;;;2.40;2.30;;;18.90;30.70;;;;;;4976457;28;20203;-74
2021/05/26 04:05:23;;;;;;;3.00;2.80;;;18.80;30.60;;;;;;4975943;28;20175;-74
2021/05/26 04:07:49;;;;;;;2.70;2.60;;;18.80;30.70;;;;;;4976484;28;20174;-74
2021/05/26 04:10:14;;;;;;;3.17;2.80;;;18.80;30.70;;;;;;4976403;28;20204;-74
2021/05/26 04:12:40;;;;;;;2.67;2.57;;;18.80;30.80;;;;;;4975984;28;20664;-74
2021/05/26 04:15:06;;;;;;;2.90;2.70;;;18.90;30.90;;;;;;4976165;28;20190;-74
2021/05/26 04:17:32;;;;;;;2.57;2.47;;;18.90;30.90;;;;;;4976258;28;20630;-75
2021/05/26 04:20:04;;;;;;;3.00;2.90;;;18.90;31.10;;;;;;4976164;28;20449;-75
2021/05/26 04:22:32;;;;;;;3.30;3.03;;;19.00;31.20;;;;;;4976180;28;20575;-76
2021/05/26 04:24:57;;;;;;;3.60;3.30;;;19.00;31.80;;;;;;4958696;28;20420;-75
2021/05/26 04:27:24;;;;;;;4.33;2.97;;;19.20;32.50;;;;;;4975455;28;20414;-75
2021/05/26 04:29:49;;;;;;;3.50;3.07;;;19.30;32.90;;;;;;4975997;28;20374;-75
2021/05/26 04:32:15;;;;;;;5.20;3.10;;;19.30;33.00;;;;;;4976067;28;20956;-76
2021/05/26 04:34:41;;;;;;;3.30;3.10;;;19.30;32.60;;;;;;4976832;28;20183;-76
2021/05/26 04:37:06;;;;;;;3.47;3.17;;;19.30;33.00;;;;;;4976395;28;20191;-76
2021/05/26 04:39:32;;;;;;;3.87;3.20;;;19.40;33.30;;;;;;4976399;28;20272;-75
2021/05/26 04:41:57;;;;;;;4.93;3.30;;;19.40;33.10;;;;;;4978991;28;20269;-75
2021/05/26 04:44:23;;;;;;;5.90;3.27;;;19.40;33.10;;;;;;4975010;28;20191;-75
2021/05/26 04:46:48;;;;;;;3.40;3.20;;;19.50;33.30;;;;;;4974591;28;20266;-75
2021/05/26 04:49:14;;;;;;;6.37;4.20;;;19.50;33.10;;;;;;4975718;28;20556;-76
2021/05/26 04:51:39;;;;;;;3.23;2.90;;;19.50;32.90;;;;;;4973856;28;20732;-76
2021/05/26 04:54:05;;;;;;;4.20;3.00;;;19.60;32.90;;;;;;4975068;28;20234;-76
2021/05/26 04:56:31;;;;;;;3.77;3.37;;;19.60;33.00;;;;;;4975957;28;20182;-76
2021/05/26 04:58:56;;;;;;;7.30;3.03;;;19.60;32.90;;;;;;4978120;28;20418;-76
2021/05/26 05:01:22;;;;;;;4.10;2.93;;;19.60;33.10;;;;;;4981501;28;20194;-76
2021/05/26 05:03:48;;;;;;;11.00;3.47;;;19.60;33.20;;;;;;4979527;28;20179;-76
2021/05/26 05:06:14;;;;;;;3.33;3.00;;;19.60;33.10;;;;;;4975126;28;20249;-76
2021/05/26 05:08:39;;;;;;;5.60;3.87;;;19.60;33.10;;;;;;4975484;28;20889;-76
2021/05/26 05:11:05;;;;;;;9.60;3.43;;;19.60;32.70;;;;;;4975284;28;20571;-76
2021/05/26 05:13:31;;;;;;;6.10;3.47;;;19.60;32.70;;;;;;4975376;28;20186;-76
2021/05/26 05:15:57;;;;;;;5.33;3.37;;;19.60;32.40;;;;;;4975306;28;20170;-75
2021/05/26 05:18:22;;;;;;;5.40;4.00;;;19.60;32.30;;;;;;4975348;28;20421;-76
2021/05/26 05:20:48;;;;;;;8.17;3.93;;;19.60;32.40;;;;;;4974914;28;20175;-75
2021/05/26 05:23:13;;;;;;;8.07;4.27;;;19.70;33.10;;;;;;4975030;28;20289;-75
2021/05/26 05:25:39;;;;;;;13.97;4.37;;;19.70;32.70;;;;;;4974904;28;20167;-76
2021/05/26 05:28:05;;;;;;;11.60;4.47;;;19.70;32.80;;;;;;4974890;28;20174;-76
2021/05/26 05:30:32;;;;;;;8.10;3.83;;;19.70;32.70;;;;;;4975200;28;20182;-78
2021/05/26 05:32:58;;;;;;;10.23;4.00;;;19.70;32.70;;;;;;4975306;28;20424;-75
2021/05/26 05:35:23;;;;;;;9.90;4.50;;;19.70;33.00;;;;;;4974437;28;20504;-75
2021/05/26 05:37:49;;;;;;;7.00;4.33;;;19.70;34.00;;;;;;4974965;28;20417;-74
2021/05/26 05:40:15;;;;;;;20.27;5.67;;;19.80;33.50;;;;;;4974800;28;20218;-76
2021/05/26 05:42:41;;;;;;;20.00;5.83;;;19.80;34.30;;;;;;4974469;28;20221;-75
2021/05/26 05:45:07;;;;;;;11.40;5.53;;;19.80;34.00;;;;;;4974394;28;20410;-75
2021/05/26 05:47:34;;;;;;;18.13;7.20;;;19.80;34.50;;;;;;4974432;28;20449;-75
2021/05/26 05:50:00;;;;;;;16.97;5.90;;;19.80;33.70;;;;;;4973951;28;20441;-74
2021/05/26 05:52:25;;;;;;;20.37;5.40;;;19.80;34.60;;;;;;4973393;28;21221;-75
2021/05/26 05:54:52;;;;;;;20.27;5.37;;;19.90;33.90;;;;;;4973758;28;20304;-81
2021/05/26 05:57:18;;;;;;;14.20;6.20;;;19.90;34.00;;;;;;4972679;28;20199;-74
2021/05/26 05:59:43;;;;;;;24.40;5.73;;;19.90;34.70;;;;;;4973125;28;20461;-75
2021/05/26 06:02:09;;;;;;;24.20;6.37;;;19.90;34.40;;;;;;4973836;28;20229;-74
2021/05/26 06:04:34;;;;;;;17.37;5.03;;;19.90;34.50;;;;;;4974256;28;20266;-75
2021/05/26 06:07:00;;;;;;;16.70;5.60;;;19.90;34.60;;;;;;4974495;28;20222;-75
2021/05/26 06:09:26;;;;;;;12.40;4.50;;;19.80;34.40;;;;;;4973926;28;20225;-76
2021/05/26 06:11:51;;;;;;;10.10;4.70;;;19.80;34.10;;;;;;4973646;28;20802;-75
2021/05/26 06:14:19;;;;;;;9.90;4.17;;;19.80;33.70;;;;;;4974045;28;20194;-75
2021/05/26 06:16:45;;;;;;;10.63;4.40;;;19.80;33.50;;;;;;4973327;28;20179;-76
2021/05/26 06:19:10;;;;;;;10.00;4.73;;;19.80;33.40;;;;;;4973526;28;20453;-76
2021/05/26 06:21:36;;;;;;;9.73;4.20;;;19.90;33.40;;;;;;4973769;28;20246;-76
2021/05/26 06:24:02;;;;;;;8.27;4.30;;;19.90;33.30;;;;;;4973437;28;20245;-76
2021/05/26 06:26:32;;;;;;;14.13;4.50;;;19.90;33.20;;;;;;4973338;28;20183;-75
2021/05/26 06:29:02;;;;;;;9.20;4.40;;;19.90;33.10;;;;;;4969691;28;20432;-77
2021/05/26 06:31:29;;;;;;;8.70;4.27;;;19.90;33.20;;;;;;4973920;28;20964;-76
2021/05/26 06:33:54;;;;;;;5.30;3.87;;;19.90;33.30;;;;;;4973578;28;20422;-77
2021/05/26 06:36:20;;;;;;;12.00;5.00;;;19.80;33.40;;;;;;4973612;28;20422;-76
2021/05/26 06:38:46;;;;;;;7.00;4.60;;;19.80;33.50;;;;;;4973808;28;20183;-76
2021/05/26 06:41:11;;;;;;;5.93;3.87;;;19.70;33.30;;;;;;4979572;28;20205;-76
2021/05/26 06:43:37;;;;;;;5.43;3.83;;;19.70;33.80;;;;;;4973628;28;20174;-78
2021/05/26 06:46:03;;;;;;;8.00;4.47;;;19.50;31.30;;;;;;4973500;28;20170;-77
2021/05/26 06:48:29;;;;;;;4.37;3.97;;;19.30;32.80;;;;;;4972188;28;20187;-76
2021/05/26 06:50:54;;;;;;;8.10;4.53;;;19.40;33.10;;;;;;4991125;28;20227;-75
2021/05/26 06:53:20;;;;;;;5.90;4.13;;;19.50;33.00;;;;;;4988484;28;20209;-75
2021/05/26 06:55:45;;;;;;;8.83;4.30;;;19.50;32.80;;;;;;4972069;28;20854;-76
2021/05/26 06:58:11;;;;;;;15.70;5.43;;;19.60;32.80;;;;;;4973502;28;20171;-74
2021/05/26 07:00:37;;;;;;;10.47;6.00;;;19.60;32.70;;;;;;4973204;28;20181;-74
2021/05/26 07:03:04;;;;;;;12.87;5.87;;;19.60;32.80;;;;;;4972862;28;20622;-74
2021/05/26 07:05:30;;;;;;;14.60;5.67;;;19.70;32.70;;;;;;4972560;28;20179;-75
2021/05/26 07:07:55;;;;;;;14.50;5.20;;;19.70;32.70;;;;;;4973248;28;20402;-74
2021/05/26 07:10:21;;;;;;;7.97;5.23;;;19.70;32.60;;;;;;4972705;28;20538;-76
2021/05/26 07:12:48;;;;;;;9.00;5.03;;;19.70;32.70;;;;;;4972759;28;20257;-76
2021/05/26 07:15:15;;;;;;;11.93;5.50;;;19.70;32.80;;;;;;4971238;28;20182;-76
2021/05/26 07:17:40;;;;;;;9.33;4.80;;;19.80;32.70;;;;;;4973048;28;20417;-75
2021/05/26 07:20:07;;;;;;;9.37;4.13;;;19.80;32.80;;;;;;4955608;28;20430;-76
2021/05/26 07:22:32;;;;;;;11.40;4.27;;;19.80;32.50;;;;;;4955746;28;20266;-75
2021/05/26 07:24:58;;;;;;;6.83;4.43;;;19.70;32.50;;;;;;4973009;28;20410;-75
2021/05/26 07:27:23;;;;;;;8.33;5.07;;;19.80;32.80;;;;;;4972824;28;20171;-75
2021/05/26 07:29:49;;;;;;;6.03;4.60;;;19.80;32.80;;;;;;4973149;28;20210;-76
2021/05/26 07:32:15;;;;;;;9.93;5.53;;;19.80;32.90;;;;;;4972980;28;20202;-74
2021/05/26 07:34:40;;;;;;;10.00;4.70;;;19.80;32.80;;;;;;4972376;28;20182;-74
2021/05/26 07:37:06;;;;;;;10.73;5.07;;;19.80;32.70;;;;;;4972113;28;20201;-74
2021/05/26 07:39:35;;;;;;;7.80;5.10;;;19.80;32.90;;;;;;4972304;28;20596;-75
2021/05/26 07:42:03;;;;;;;9.83;4.90;;;19.80;32.90;;;;;;4972567;28;20206;-74
2021/05/26 07:44:29;;;;;;;7.90;5.00;;;19.80;32.90;;;;;;4972895;28;20509;-74
2021/05/26 07:46:54;;;;;;;6.70;4.40;;;19.80;32.80;;;;;;4972665;28;20553;-74
2021/05/26 07:49:21;;;;;;;8.27;5.60;;;19.90;33.10;;;;;;4972410;28;20191;-74
2021/05/26 07:51:51;;;;;;;10.47;5.17;;;19.80;33.10;;;;;;4978151;28;20212;-74
2021/05/26 07:54:17;;;;;;;8.83;4.73;;;19.80;33.20;;;;;;4972734;28;20449;-74
2021/05/26 07:56:43;;;;;;;7.03;4.70;;;19.90;33.00;;;;;;4972276;28;20406;-75
2021/05/26 07:59:08;;;;;;;6.17;4.80;;;19.90;32.90;;;;;;4972565;28;20809;-76
2021/05/26 08:01:34;;;;;;;5.30;4.63;;;19.90;33.00;;;;;;4955020;28;20198;-75
2021/05/26 08:03:59;;;;;;;8.23;5.00;;;19.90;33.30;;;;;;4972676;28;20225;-76
2021/05/26 08:06:25;;;;;;;8.43;4.87;;;19.90;33.90;;;;;;4972649;28;20226;-76
2021/05/26 08:08:50;;;;;;;8.10;4.63;;;19.90;33.50;;;;;;4972485;28;20669;-76
2021/05/26 08:11:16;;;;;;;9.97;5.10;;;19.90;33.50;;;;;;4977911;28;20286;-77
2021/05/26 08:13:41;;;;;;;5.73;5.20;;;19.90;33.20;;;;;;4972923;28;20186;-76
2021/05/26 08:16:09;;;;;;;7.40;4.87;;;19.90;33.10;;;;;;4972596;28;20204;-76
2021/05/26 08:18:34;;;;;;;8.23;4.67;;;19.90;33.00;;;;;;4972212;28;20183;-75
2021/05/26 08:21:00;;;;;;;6.63;4.60;;;19.90;32.80;;;;;;4976616;28;20945;-73
2021/05/26 08:23:26;;;;;;;6.20;4.63;;;19.90;33.10;;;;;;4976318;28;20217;-75
2021/05/26 08:25:51;;;;;;;4.67;3.63;;;19.90;33.40;;;;;;4975620;28;20221;-74
2021/05/26 08:28:17;;;;;;;4.77;3.90;;;19.90;33.70;;;;;;4975006;28;20322;-74
2021/05/26 08:30:44;;;;;;;10.20;4.77;;;20.00;34.00;;;;;;4976654;28;20555;-74
2021/05/26 08:33:10;;;;;;;6.97;4.50;;;19.90;33.30;;;;;;4977597;28;20421;-75
2021/05/26 08:35:36;;;;;;;5.03;4.30;;;19.90;33.00;;;;;;4982913;28;20444;-75
2021/05/26 08:38:02;;;;;;;7.60;5.23;;;20.00;33.00;;;;;;4976196;28;20186;-74
2021/05/26 08:40:29;;;;;;;5.43;4.20;;;20.00;33.10;;;;;;4975364;28;20189;-75
2021/05/26 08:42:57;;;;;;;6.93;5.13;;;19.90;33.60;;;;;;4976365;28;20469;-75
2021/05/26 08:45:22;;;;;;;8.07;4.73;;;20.00;33.30;;;;;;4975657;28;20417;-75
2021/05/26 08:47:51;;;;;;;8.37;4.50;;;19.90;33.30;;;;;;4958122;28;20850;-75
2021/05/26 08:53:39;;;;;;;4.50;3.80;;;20.00;34.00;;;;;;4973511;28;20801;-75
2021/05/26 08:56:05;;;;;;;4.70;4.30;;;20.00;34.00;;;;;;4973873;28;20524;-75
2021/05/26 08:58:37;;;;;;;5.03;4.57;;;20.00;33.80;;;;;;4989744;28;20268;-75
2021/05/26 09:01:03;;;;;;;6.20;3.90;;;20.00;34.00;;;;;;4994522;28;21034;-76
2021/05/26 09:03:30;;;;;;;4.40;4.00;;;20.00;33.70;;;;;;4995876;28;20491;-75
2021/05/26 09:05:56;;;;;;;7.80;4.47;;;20.00;33.60;;;;;;4977671;28;20177;-75
2021/05/26 09:08:23;;;;;;;5.40;4.10;;;20.00;33.70;;;;;;4984557;28;20425;-76
2021/05/26 09:11:02;;;;;;;4.50;4.10;;;20.00;33.10;;;;;;4975387;28;20174;-75
2021/05/26 09:13:34;;;;;;;5.70;4.50;;;20.00;33.10;;;;;;4976120;28;20417;-75
2021/05/26 09:16:01;;;;;;;4.70;4.20;;;20.00;33.30;;;;;;4967859;28;20445;-75
2021/05/26 09:18:27;;;;;;;4.47;4.03;;;20.00;33.20;;;;;;4975873;28;20433;-75
2021/05/26 09:20:53;;;;;;;5.60;4.20;;;20.00;33.30;;;;;;4975549;28;20421;-75
2021/05/26 09:23:29;;;;;;;5.47;4.03;;;20.00;33.50;;;;;;4975555;28;20207;-75
2021/05/26 09:25:58;;;;;;;6.70;4.70;;;20.00;33.60;;;;;;4975192;28;20447;-75
2021/05/26 09:28:24;;;;;;;6.30;4.40;;;20.00;34.00;;;;;;4975577;28;20410;-75
2021/05/26 09:31:05;;;;;;;5.43;4.50;;;20.00;33.90;;;;;;4975732;28;20414;-75
2021/05/26 09:33:32;;;;;;;3.93;3.53;;;20.00;33.70;;;;;;4975484;28;20436;-75
2021/05/26 09:36:12;;;;;;;4.27;3.80;;;20.00;34.10;;;;;;4975462;28;20408;-75
2021/05/26 09:38:42;;;;;;;4.40;3.97;;;20.00;33.70;;;;;;4975044;28;20410;-75
2021/05/26 09:41:09;;;;;;;4.00;3.70;;;20.00;33.90;;;;;;4974942;28;20497;-75
2021/05/26 09:43:45;;;;;;;5.00;4.23;;;20.00;34.10;;;;;;4975152;28;20402;-75
2021/05/26 09:46:31;;;;;;;4.33;4.00;;;20.00;34.30;;;;;;4974392;28;20948;-75
2021/05/26 09:49:17;;;;;;;10.73;4.13;;;20.00;33.70;;;;;;4974680;28;20438;-75
2021/05/26 09:51:58;;;;;;;3.87;3.57;;;20.00;34.20;;;;;;4974600;28;20429;-75
2021/05/26 09:54:31;;;;;;;4.33;3.87;;;20.00;34.10;;;;;;4974129;28;20517;-75
2021/05/26 09:57:03;;;;;;;4.50;3.80;;;20.00;33.80;;;;;;4974500;28;20406;-75
2021/05/26 09:59:29;;;;;;;4.07;3.27;;;20.00;34.10;;;;;;4974583;28;20852;-75
2021/05/26 10:01:55;;;;;;;4.00;3.57;;;20.00;33.70;;;;;;4974184;28;20465;-75
2021/05/26 10:04:22;;;;;;;4.70;4.07;;;20.00;33.70;;;;;;4974657;28;20906;-75
2021/05/26 10:06:49;;;;;;;3.77;3.47;;;20.00;34.00;;;;;;4974091;28;20181;-75
2021/05/26 10:09:17;;;;;;;4.00;3.70;;;20.00;33.50;;;;;;4974160;28;20402;-75
2021/05/26 10:11:44;;;;;;;4.50;3.93;;;20.00;33.80;;;;;;4974424;28;20469;-75
2021/05/26 10:14:11;;;;;;;4.17;3.57;;;20.00;34.10;;;;;;4974449;28;20413;-75
2021/05/26 10:16:45;;;;;;;4.17;3.60;;;20.00;33.80;;;;;;4973931;28;20426;-75
2021/05/26 10:19:11;;;;;;;4.73;3.77;;;20.00;34.20;;;;;;4974498;28;20777;-75
2021/05/26 10:21:38;;;;;;;4.67;3.73;;;20.10;34.10;;;;;;4974153;28;20461;-75
2021/05/26 10:24:08;;;;;;;6.00;3.83;;;20.10;34.20;;;;;;4973968;28;20411;-75
2021/05/26 10:27:02;;;;;;;4.60;3.43;;;20.10;34.40;;;;;;4956504;28;20491;-75
2021/05/26 10:29:28;;;;;;;4.77;3.83;;;20.10;34.30;;;;;;4973583;28;20429;-75
2021/05/26 10:31:58;;;;;;;5.63;3.60;;;20.10;34.20;;;;;;4972737;28;20450;-75
2021/05/26 10:34:42;;;;;;;5.90;4.50;;;20.10;34.20;;;;;;4973942;28;20550;-76
2021/05/26 10:37:08;;;;;;;3.60;3.30;;;20.10;33.80;;;;;;4966719;28;20433;-75
2021/05/26 10:39:34;;;;;;;4.80;4.00;;;20.00;33.40;;;;;;4973163;28;20505;-74
2021/05/26 10:42:01;;;;;;;5.70;3.40;;;20.00;34.10;;;;;;4974000;28;20560;-75
2021/05/26 10:44:59;;;;;;;5.13;3.30;;;19.90;33.10;;;;;;4974951;28;20186;-75
2021/05/26 10:47:39;;;;;;;4.77;3.53;;;20.00;33.60;;;;;;4973121;28;20418;-75
2021/05/26 10:50:15;;;;;;;7.83;4.00;;;20.00;33.80;;;;;;4972044;28;20410;-75
2021/05/26 10:53:10;;;;;;;5.80;4.00;;;20.00;33.70;;;;;;4968954;28;20442;-75
2021/05/26 10:55:46;;;;;;;4.10;3.70;;;20.10;33.60;;;;;;4956073;28;20450;-76
2021/05/26 10:58:12;;;;;;;5.83;4.40;;;20.10;33.50;;;;;;4973506;28;20952;-75
2021/05/26 11:00:39;;;;;;;9.70;4.03;;;20.10;33.70;;;;;;4974147;28;20442;-75
2021/05/26 11:03:23;;;;;;;6.87;4.70;;;20.10;33.50;;;;;;4973599;28;20198;-75
2021/05/26 11:05:53;;;;;;;6.03;5.30;;;20.10;33.50;;;;;;4973041;28;20405;-75
2021/05/26 11:08:28;;;;;;;7.43;5.60;;;20.10;33.70;;;;;;4973772;28;20406;-76
2021/05/26 11:10:54;;;;;;;8.67;4.10;;;20.10;33.80;;;;;;4973632;28;20747;-76
2021/05/26 11:13:19;;;;;;;6.90;4.97;;;20.10;33.60;;;;;;4974135;28;20408;-75
2021/05/26 11:15:47;;;;;;;10.03;5.30;;;20.10;33.50;;;;;;4973677;28;20493;-76
2021/05/26 11:18:17;;;;;;;11.17;4.90;;;20.10;33.40;;;;;;4957613;28;20736;-75
2021/05/26 11:20:43;;;;;;;8.07;5.57;;;20.10;33.60;;;;;;4988520;28;20426;-76
2021/05/26 11:23:13;;;;;;;9.27;5.67;;;20.10;33.30;;;;;;4973425;28;20462;-75
2021/05/26 11:25:51;;;;;;;6.67;5.10;;;20.10;33.20;;;;;;4973588;28;20170;-75
2021/05/26 11:28:30;;;;;;;7.20;5.20;;;20.00;33.20;;;;;;4972833;28;20502;-75
2021/05/26 11:31:07;;;;;;;7.43;4.93;;;20.00;33.30;;;;;;4972862;28;20445;-75
2021/05/26 11:33:32;;;;;;;9.53;5.20;;;20.00;33.40;;;;;;4973585;28;20417;-76
2021/05/26 11:36:05;;;;;;;11.97;5.97;;;20.00;33.30;;;;;;4973391;28;20426;-76
2021/05/26 11:38:32;;;;;;;9.83;6.20;;;20.00;33.30;;;;;;4972462;28;20182;-75
2021/05/26 11:41:00;;;;;;;5.80;5.10;;;20.00;33.40;;;;;;4973203;28;20442;-75
2021/05/26 11:43:30;;;;;;;8.37;6.10;;;20.00;33.50;;;;;;4972842;28;20472;-75
2021/05/26 11:46:07;;;;;;;8.40;5.27;;;20.00;33.40;;;;;;4973247;28;20417;-75
2021/05/26 11:48:34;;;;;;;9.30;5.50;;;20.10;33.40;;;;;;4973091;28;20418;-75
2021/05/26 11:51:00;;;;;;;11.03;5.40;;;20.10;33.30;;;;;;4974786;28;20437;-76
2021/05/26 11:53:26;;;;;;;10.50;6.90;;;20.10;33.50;;;;;;4977016;28;20505;-76
2021/05/26 11:55:59;;;;;;;12.10;5.70;;;20.10;33.40;;;;;;4976533;28;20438;-74
2021/05/26 11:58:33;;;;;;;7.77;5.20;;;20.10;33.30;;;;;;4977737;28;20493;-76
2021/05/26 12:01:14;;;;;;;8.17;5.50;;;20.10;33.30;;;;;;4977566;28;20459;-75
2021/05/26 12:03:40;;;;;;;8.17;5.23;;;20.10;33.40;;;;;;4959774;28;20951;-76
2021/05/26 12:06:06;;;;;;;6.37;5.73;;;20.10;33.30;;;;;;4977813;28;20410;-74
2021/05/26 12:08:41;;;;;;;12.13;6.27;;;20.10;33.30;;;;;;4978741;28;20473;-75
2021/05/26 12:11:10;;;;;;;6.40;5.40;;;20.10;33.30;;;;;;4969502;28;20213;-76
2021/05/26 12:13:38;;;;;;;13.00;6.57;;;20.10;33.40;;;;;;4977007;28;20782;-76
2021/05/26 12:16:06;;;;;;;20.73;6.03;;;20.00;33.40;;;;;;4976153;28;20406;-76
2021/05/26 12:18:36;;;;;;;9.13;6.07;;;20.10;33.20;;;;;;4976215;28;20414;-75
2021/05/26 12:21:03;;;;;;;7.27;5.70;;;20.10;33.40;;;;;;4976361;28;20544;-76
2021/05/26 12:23:41;;;;;;;6.97;5.40;;;20.10;33.30;;;;;;4976617;28;20500;-75
2021/05/26 12:26:35;;;;;;;7.30;5.73;;;20.10;33.20;;;;;;4975935;28;21132;-75
2021/05/26 12:29:03;;;;;;;6.77;5.70;;;20.10;33.20;;;;;;4979220;28;20453;-75
2021/05/26 12:31:30;;;;;;;8.37;5.53;;;20.10;33.20;;;;;;4988092;28;20450;-75
2021/05/26 12:33:57;;;;;;;7.77;5.10;;;20.10;33.30;;;;;;4976307;28;20418;-75
2021/05/26 12:36:25;;;;;;;9.43;5.00;;;20.00;33.20;;;;;;4975972;28;20441;-76
2021/05/26 12:39:02;;;;;;;6.33;5.20;;;20.00;33.20;;;;;;4976102;28;20422;-75
2021/05/26 12:41:32;;;;;;;8.57;5.73;;;20.00;33.20;;;;;;4975795;28;20471;-75
2021/05/26 12:44:00;;;;;;;10.30;5.57;;;20.00;33.10;;;;;;4974730;28;20418;-76
2021/05/26 12:46:47;;;;;;;8.40;5.17;;;20.10;33.20;;;;;;4975892;28;20425;-75
2021/05/26 12:49:50;;;;;;;7.47;5.13;;;20.10;33.30;;;;;;4975697;28;20858;-75
2021/05/26 12:52:26;;;;;;;9.47;5.60;;;20.10;33.20;;;;;;4968759;28;20469;-76
2021/05/26 12:54:52;;;;;;;5.53;4.80;;;20.10;33.30;;;;;;4974318;28;20863;-76